createdAt,value
2022-09-28T00:01:17.950Z,3.10
2022-09-28T00:03:47.722Z,3.07
2022-09-28T00:06:19.382Z,3.00
2022-09-28T00:08:47.080Z,3.03
2022-09-28T00:11:15.311Z,3.00
2022-09-28T00:13:43.744Z,3.00
2022-09-28T00:16:17.078Z,3.00
2022-09-28T00:18:45.444Z,3.10
2022-09-28T00:21:17.466Z,3.10
2022-09-28T00:24:04.858Z,3.07
2022-09-28T00:26:33.859Z,3.03
2022-09-28T00:29:02.667Z,3.00
2022-09-28T00:31:33.984Z,3.03
2022-09-28T00:34:02.659Z,3.00
2022-09-28T00:36:32.654Z,3.00
2022-09-28T00:39:07.998Z,3.13
2022-09-28T00:41:36.223Z,3.03
2022-09-28T00:44:51.967Z,3.20
2022-09-28T00:47:31.103Z,3.10
2022-09-28T00:50:16.088Z,3.00
2022-09-28T00:53:07.236Z,3.03
2022-09-28T00:55:48.441Z,3.00
2022-09-28T00:58:25.176Z,3.10
2022-09-28T01:00:58.035Z,3.10
2022-09-28T01:03:27.751Z,3.00
2022-09-28T01:05:59.947Z,3.00
2022-09-28T01:08:29.581Z,3.10
2022-09-28T01:13:43.283Z,3.03
2022-09-28T01:16:39.851Z,3.10
2022-09-28T01:20:08.503Z,3.00
2022-09-28T01:23:12.988Z,3.10
2022-09-28T01:26:19.295Z,3.20
2022-09-28T01:28:48.016Z,3.00
2022-09-28T01:31:19.117Z,3.10
2022-09-28T01:33:58.258Z,3.07
2022-09-28T01:36:42.691Z,3.17
2022-09-28T01:39:18.188Z,3.10
2022-09-28T01:41:51.261Z,3.10
2022-09-28T01:44:22.885Z,2.93
2022-09-28T01:46:52.461Z,3.00
2022-09-28T01:49:44.857Z,3.10
2022-09-28T01:52:40.930Z,3.03
2022-09-28T01:55:25.584Z,3.00
2022-09-28T01:58:01.812Z,2.90
2022-09-28T02:00:29.777Z,3.20
2022-09-28T02:03:25.500Z,3.00
2022-09-28T02:06:33.444Z,3.07
2022-09-28T02:09:10.822Z,3.00
2022-09-28T02:11:49.326Z,3.10
2022-09-28T02:14:19.652Z,3.00
2022-09-28T02:16:54.217Z,3.03
2022-09-28T02:19:30.020Z,3.10
2022-09-28T02:22:25.643Z,3.00
2022-09-28T02:25:09.785Z,3.10
2022-09-28T02:28:04.537Z,3.03
2022-09-28T02:30:36.484Z,3.10
2022-09-28T02:33:23.229Z,3.20
2022-09-28T02:35:51.166Z,3.00
2022-09-28T02:38:20.539Z,3.03
2022-09-28T02:41:04.797Z,3.03
2022-09-28T02:44:01.310Z,3.00
2022-09-28T02:46:59.889Z,3.00
2022-09-28T02:49:55.327Z,3.00
2022-09-28T02:53:05.081Z,3.03
2022-09-28T02:55:55.769Z,3.10
2022-09-28T02:59:13.200Z,3.07
2022-09-28T03:02:02.668Z,3.17
2022-09-28T03:04:37.654Z,3.10
2022-09-28T03:07:37.068Z,3.07
2022-09-28T03:10:26.189Z,3.20
2022-09-28T03:12:55.638Z,3.10
2022-09-28T03:15:32.658Z,3.10
2022-09-28T03:18:01.413Z,3.10
2022-09-28T03:20:31.802Z,3.00
2022-09-28T03:25:46.159Z,3.07
2022-09-28T03:28:13.534Z,2.97
2022-09-28T03:30:42.763Z,3.10
2022-09-28T03:33:10.258Z,3.03
2022-09-28T03:35:38.594Z,3.20
2022-09-28T03:38:06.143Z,3.20
2022-09-28T03:40:37.572Z,3.20
2022-09-28T03:43:04.719Z,3.20
2022-09-28T03:45:32.338Z,3.20
2022-09-28T03:48:00.144Z,2.93
2022-09-28T03:50:27.643Z,3.23
2022-09-28T03:52:55.100Z,3.00
2022-09-28T03:55:22.639Z,2.97
2022-09-28T03:57:56.266Z,3.10
2022-09-28T04:00:23.829Z,3.00
2022-09-28T04:02:51.343Z,3.07
2022-09-28T04:05:18.831Z,3.20
2022-09-28T04:07:46.311Z,3.00
2022-09-28T04:10:13.635Z,3.10
2022-09-28T04:12:41.182Z,3.20
2022-09-28T04:15:09.191Z,3.10
2022-09-28T04:17:40.113Z,3.03
2022-09-28T04:20:14.600Z,3.17
2022-09-28T04:22:57.771Z,3.10
2022-09-28T04:25:25.343Z,3.00
2022-09-28T04:28:11.231Z,3.17
2022-09-28T04:30:38.917Z,3.10
2022-09-28T04:33:06.423Z,3.10
2022-09-28T04:35:33.835Z,3.20
2022-09-28T04:38:03.066Z,3.10
2022-09-28T04:40:31.641Z,3.00
2022-09-28T04:42:59.359Z,3.03
2022-09-28T04:45:27.376Z,3.03
2022-09-28T04:47:59.147Z,2.93
2022-09-28T04:50:58.344Z,3.00
2022-09-28T04:53:29.952Z,3.07
2022-09-28T04:56:10.892Z,3.07
2022-09-28T04:58:39.995Z,3.03
2022-09-28T05:01:15.494Z,2.90
2022-09-28T05:04:03.089Z,3.10
2022-09-28T05:06:57.754Z,3.00
2022-09-28T05:09:25.386Z,2.90
2022-09-28T05:11:53.002Z,3.03
2022-09-28T05:14:22.856Z,3.00
2022-09-28T05:16:51.745Z,2.87
2022-09-28T05:19:21.972Z,2.90
2022-09-28T05:21:51.260Z,3.10
2022-09-28T05:24:18.864Z,2.90
2022-09-28T05:26:51.277Z,2.90
2022-09-28T05:29:19.828Z,3.00
2022-09-28T05:32:05.936Z,2.97
2022-09-28T05:34:52.457Z,3.00
2022-09-28T05:37:25.964Z,2.97
2022-09-28T05:39:53.552Z,2.93
2022-09-28T05:42:21.025Z,3.00
2022-09-28T05:44:48.564Z,2.87
2022-09-28T05:47:15.625Z,2.80
2022-09-28T05:49:44.077Z,2.97
2022-09-28T05:52:12.759Z,2.90
2022-09-28T05:54:40.594Z,2.90
2022-09-28T05:57:08.001Z,2.87
2022-09-28T05:59:36.030Z,2.90
2022-09-28T06:02:04.810Z,2.90
2022-09-28T06:04:32.365Z,2.90
2022-09-28T06:07:00.362Z,2.83
2022-09-28T06:09:28.266Z,2.90
2022-09-28T06:12:19.770Z,2.80
2022-09-28T06:14:49.842Z,2.90
2022-09-28T06:17:17.286Z,2.87
2022-09-28T06:19:52.190Z,2.80
2022-09-28T06:22:26.818Z,3.00
2022-09-28T06:25:07.677Z,2.90
2022-09-28T06:27:35.850Z,2.80
2022-09-28T06:30:03.770Z,2.87
2022-09-28T06:32:30.971Z,2.87
2022-09-28T06:34:57.970Z,2.90
2022-09-28T06:37:27.628Z,2.80
2022-09-28T06:39:56.234Z,2.80
2022-09-28T06:42:24.425Z,2.90
2022-09-28T06:45:25.187Z,2.80
2022-09-28T06:48:10.415Z,2.80
2022-09-28T06:50:42.363Z,2.77
2022-09-28T06:53:25.442Z,2.80
2022-09-28T06:56:15.615Z,2.80
2022-09-28T06:58:43.062Z,2.83
2022-09-28T07:01:12.044Z,2.87
2022-09-28T07:04:01.715Z,3.00
2022-09-28T07:06:53.586Z,2.80
2022-09-28T07:09:45.012Z,2.90
2022-09-28T07:12:36.072Z,2.77
2022-09-28T07:15:12.652Z,2.77
2022-09-28T07:17:51.962Z,2.83
2022-09-28T07:20:25.669Z,2.80
2022-09-28T07:23:15.744Z,2.80
2022-09-28T07:26:23.506Z,2.80
2022-09-28T07:29:01.038Z,2.80
2022-09-28T07:31:42.148Z,2.80
2022-09-28T07:34:28.363Z,2.83
2022-09-28T07:37:02.969Z,2.80
2022-09-28T07:39:30.483Z,2.80
2022-09-28T07:42:02.534Z,2.80
2022-09-28T07:44:31.387Z,2.80
2022-09-28T07:46:58.700Z,2.90
2022-09-28T07:49:49.620Z,2.80
2022-09-28T07:52:36.081Z,2.80
2022-09-28T07:55:24.197Z,2.80
2022-09-28T07:58:10.716Z,2.80
2022-09-28T08:03:47.829Z,2.80
2022-09-28T08:06:17.561Z,2.90
2022-09-28T08:08:45.328Z,2.80
2022-09-28T08:11:18.633Z,2.90
2022-09-28T08:14:16.244Z,3.00
2022-09-28T08:17:00.456Z,2.80
2022-09-28T08:20:01.044Z,2.80
2022-09-28T08:22:32.075Z,2.80
2022-09-28T08:25:00.616Z,2.80
2022-09-28T08:27:29.689Z,2.80
2022-09-28T08:29:57.222Z,2.80
2022-09-28T08:33:00.198Z,2.77
2022-09-28T08:35:42.976Z,2.70
2022-09-28T08:38:17.553Z,2.80
2022-09-28T08:41:15.945Z,2.80
2022-09-28T08:44:14.758Z,2.80
2022-09-28T08:47:29.716Z,2.90
2022-09-28T08:50:24.910Z,2.77
2022-09-28T08:53:32.971Z,2.77
2022-09-28T08:56:27.002Z,2.70
2022-09-28T08:59:00.823Z,2.70
2022-09-28T09:01:55.946Z,2.70
2022-09-28T09:04:25.389Z,2.77
2022-09-28T09:07:44.365Z,2.60
2022-09-28T09:10:31.043Z,2.60
2022-09-28T09:13:45.778Z,2.63
2022-09-28T09:17:10.405Z,2.60
2022-09-28T09:20:19.269Z,2.70
2022-09-28T09:23:39.189Z,2.67
2022-09-28T09:26:39.422Z,2.67
2022-09-28T09:29:47.225Z,2.60
2022-09-28T09:32:35.546Z,2.70
2022-09-28T09:35:30.753Z,2.80
2022-09-28T09:38:20.477Z,2.60
2022-09-28T09:41:34.918Z,2.50
2022-09-28T09:45:25.903Z,2.77
2022-09-28T09:48:38.295Z,2.50
2022-09-28T09:51:47.627Z,2.60
2022-09-28T09:54:52.223Z,2.70
2022-09-28T09:57:51.095Z,2.80
2022-09-28T10:00:45.031Z,2.77
2022-09-28T10:03:34.996Z,2.70
2022-09-28T10:06:22.090Z,2.73
2022-09-28T10:09:04.387Z,2.77
2022-09-28T10:11:45.615Z,2.80
2022-09-28T10:14:22.636Z,2.80
2022-09-28T10:17:02.328Z,2.80
2022-09-28T10:19:48.362Z,2.80
2022-09-28T10:22:38.839Z,2.73
2022-09-28T10:25:13.358Z,2.90
2022-09-28T10:27:45.931Z,2.77
2022-09-28T10:30:24.067Z,2.90
2022-09-28T10:32:58.813Z,2.90
2022-09-28T10:35:42.131Z,2.90
2022-09-28T10:38:19.126Z,2.87
2022-09-28T10:41:13.380Z,2.83
2022-09-28T10:44:16.376Z,2.90
2022-09-28T10:47:09.764Z,2.80
2022-09-28T10:49:48.299Z,2.80
2022-09-28T10:52:44.831Z,2.87
2022-09-28T10:55:32.579Z,2.80
2022-09-28T10:58:01.259Z,2.90
2022-09-28T11:00:43.533Z,2.77
2022-09-28T11:03:26.144Z,2.70
2022-09-28T11:06:03.011Z,2.70
2022-09-28T11:08:42.849Z,2.80
2022-09-28T11:11:19.743Z,2.90
2022-09-28T11:13:56.100Z,2.97
2022-09-28T11:16:32.620Z,3.00
2022-09-28T11:19:29.521Z,2.93
2022-09-28T11:22:01.856Z,3.00
2022-09-28T11:24:35.805Z,2.80
2022-09-28T11:27:04.948Z,2.93
2022-09-28T11:29:43.856Z,2.80
2022-09-28T11:32:45.012Z,2.90
2022-09-28T11:36:00.032Z,2.80
2022-09-28T11:38:49.707Z,2.90
2022-09-28T11:42:02.112Z,3.00
2022-09-28T11:44:44.658Z,3.03
2022-09-28T11:47:28.411Z,3.00
2022-09-28T11:50:26.773Z,3.30
2022-09-28T11:52:57.324Z,3.03
2022-09-28T11:56:11.832Z,2.63
2022-09-28T11:58:53.936Z,2.57
2022-09-28T12:01:40.402Z,2.47
2022-09-28T12:04:31.865Z,2.80
2022-09-28T12:07:28.709Z,3.70
2022-09-28T12:10:19.445Z,2.80
2022-09-28T12:13:01.003Z,2.60
2022-09-28T12:16:27.712Z,2.50
2022-09-28T12:19:04.521Z,2.50
2022-09-28T12:21:51.100Z,2.80
2022-09-28T12:24:39.322Z,2.87
2022-09-28T12:27:32.858Z,2.70
2022-09-28T12:30:19.717Z,2.63
2022-09-28T12:32:58.419Z,2.70
2022-09-28T12:36:02.405Z,2.67
2022-09-28T12:38:35.918Z,3.00
2022-09-28T12:41:23.593Z,2.90
2022-09-28T12:45:02.122Z,3.10
2022-09-28T12:47:54.427Z,3.33
2022-09-28T12:50:39.921Z,3.30
2022-09-28T12:53:58.758Z,3.30
2022-09-28T12:57:22.486Z,2.87
2022-09-28T13:00:23.167Z,2.87
2022-09-28T13:04:03.959Z,2.80
2022-09-28T13:06:53.142Z,2.80
2022-09-28T13:09:26.555Z,3.07
2022-09-28T13:12:15.521Z,2.90
2022-09-28T13:15:12.082Z,2.70
2022-09-28T13:18:09.687Z,3.00
2022-09-28T13:20:49.046Z,3.17
2022-09-28T13:23:37.683Z,3.00
2022-09-28T13:26:36.895Z,3.20
2022-09-28T13:29:16.932Z,2.87
2022-09-28T13:32:05.207Z,3.03
2022-09-28T13:34:36.100Z,2.93
2022-09-28T13:37:21.532Z,3.00
2022-09-28T13:39:59.430Z,2.70
2022-09-28T13:42:52.867Z,2.83
2022-09-28T13:45:23.043Z,2.83
2022-09-28T13:48:15.235Z,3.03
2022-09-28T13:50:51.376Z,3.10
2022-09-28T13:53:36.320Z,3.23
2022-09-28T13:56:44.748Z,2.90
2022-09-28T13:59:29.720Z,2.80
2022-09-28T14:02:06.959Z,2.67
2022-09-28T14:05:20.695Z,2.90
2022-09-28T14:08:09.387Z,2.97
2022-09-28T14:10:53.344Z,3.13
2022-09-28T14:13:42.408Z,3.10
2022-09-28T14:16:23.078Z,3.13
2022-09-28T14:18:57.636Z,3.10
2022-09-28T14:22:14.944Z,3.40
2022-09-28T14:25:26.760Z,3.20
2022-09-28T14:28:12.967Z,3.00
2022-09-28T14:30:43.470Z,3.17
2022-09-28T14:33:30.876Z,3.27
2022-09-28T14:36:05.320Z,3.37
2022-09-28T14:39:06.852Z,3.40
2022-09-28T14:41:43.113Z,3.10
2022-09-28T14:44:18.551Z,3.03
2022-09-28T14:46:47.492Z,3.20
2022-09-28T14:49:17.482Z,3.07
2022-09-28T14:51:58.216Z,2.90
2022-09-28T14:54:29.551Z,3.27
2022-09-28T14:57:31.148Z,3.20
2022-09-28T14:59:59.673Z,3.07
2022-09-28T15:02:36.150Z,3.23
2022-09-28T15:05:18.607Z,3.40
2022-09-28T15:07:54.973Z,3.20
2022-09-28T15:10:48.381Z,3.17
2022-09-28T15:13:27.764Z,3.20
2022-09-28T15:16:06.930Z,3.40
2022-09-28T15:19:07.602Z,3.50
2022-09-28T15:21:43.013Z,3.43
2022-09-28T15:24:33.690Z,3.70
2022-09-28T15:27:10.160Z,3.63
2022-09-28T15:29:37.609Z,3.20
2022-09-28T15:32:05.059Z,3.40
2022-09-28T15:34:51.306Z,2.90
2022-09-28T15:37:34.977Z,3.10
2022-09-28T15:40:12.683Z,3.10
2022-09-28T15:42:40.225Z,3.00
2022-09-28T15:45:26.531Z,2.80
2022-09-28T15:48:20.521Z,2.90
2022-09-28T15:51:11.465Z,2.90
2022-09-28T15:54:04.583Z,2.73
2022-09-28T15:56:32.233Z,2.80
2022-09-28T15:59:18.221Z,2.70
2022-09-28T16:01:46.259Z,2.80
2022-09-28T16:04:40.357Z,2.90
2022-09-28T16:07:13.278Z,2.87
2022-09-28T16:10:02.328Z,2.80
2022-09-28T16:12:37.958Z,2.90
2022-09-28T16:15:12.682Z,2.70
2022-09-28T16:17:41.578Z,2.80
2022-09-28T16:20:36.238Z,2.90
2022-09-28T16:23:21.331Z,2.77
2022-09-28T16:26:16.554Z,2.90
2022-09-28T16:28:48.582Z,2.83
2022-09-28T16:31:18.642Z,2.87
2022-09-28T16:34:20.572Z,2.90
2022-09-28T16:36:49.897Z,2.80
2022-09-28T16:39:18.987Z,2.80
2022-09-28T16:41:53.619Z,3.00
2022-09-28T16:44:29.191Z,2.90
2022-09-28T16:47:00.522Z,2.83
2022-09-28T16:49:29.505Z,2.87
2022-09-28T16:51:56.959Z,2.90
2022-09-28T16:54:44.418Z,2.83
2022-09-28T16:57:14.855Z,2.87
2022-09-28T16:59:42.555Z,2.87
2022-09-28T17:02:45.339Z,2.87
2022-09-28T17:05:08.178Z,3.00
2022-09-28T17:07:35.295Z,2.83
2022-09-28T17:10:02.827Z,2.83
2022-09-28T17:12:30.233Z,2.80
2022-09-28T17:14:58.051Z,2.83
2022-09-28T17:17:29.703Z,2.90
2022-09-28T17:19:57.123Z,2.80
2022-09-28T17:22:24.595Z,2.80
2022-09-28T17:24:51.553Z,2.87
2022-09-28T17:27:21.512Z,2.80
2022-09-28T17:29:49.031Z,2.90
2022-09-28T17:32:19.864Z,2.80
2022-09-28T17:34:55.929Z,2.90
2022-09-28T17:37:28.516Z,2.90
2022-09-28T17:39:56.000Z,2.80
2022-09-28T17:42:23.519Z,2.90
2022-09-28T17:44:50.944Z,2.90
2022-09-28T17:47:18.631Z,3.00
2022-09-28T17:49:46.198Z,2.87
2022-09-28T17:52:14.002Z,2.80
2022-09-28T17:54:41.580Z,3.10
2022-09-28T17:57:10.295Z,2.90
2022-09-28T17:59:37.697Z,3.03
2022-09-28T18:02:05.140Z,2.93
2022-09-28T18:04:51.414Z,3.10
2022-09-28T18:07:19.590Z,2.97
2022-09-28T18:09:47.009Z,3.00
2022-09-28T18:12:14.401Z,3.03
2022-09-28T18:14:41.456Z,2.90
2022-09-28T18:17:08.988Z,2.90
2022-09-28T18:19:36.549Z,2.97
2022-09-28T18:22:04.272Z,2.90
2022-09-28T18:24:32.332Z,3.07
2022-09-28T18:26:59.881Z,2.90
2022-09-28T18:29:31.008Z,2.93
2022-09-28T18:32:01.416Z,2.97
2022-09-28T18:34:28.949Z,2.97
2022-09-28T18:36:56.329Z,3.00
2022-09-28T18:39:24.000Z,2.90
2022-09-28T18:41:51.569Z,2.90
2022-09-28T18:44:19.281Z,2.93
2022-09-28T18:46:47.342Z,2.87
2022-09-28T18:49:14.946Z,3.00
2022-09-28T18:51:42.745Z,3.00
2022-09-28T18:54:10.537Z,3.00
2022-09-28T18:56:41.577Z,3.00
2022-09-28T18:59:12.356Z,2.90
2022-09-28T19:01:41.614Z,2.93
2022-09-28T19:04:10.718Z,3.10
2022-09-28T19:06:41.149Z,2.90
2022-09-28T19:09:09.302Z,3.03
2022-09-28T19:11:37.048Z,3.03
2022-09-28T19:14:04.572Z,3.10
2022-09-28T19:16:33.974Z,3.00
2022-09-28T19:19:03.091Z,3.10
2022-09-28T19:21:30.783Z,3.00
2022-09-28T19:24:02.366Z,3.00
2022-09-28T19:26:30.881Z,3.03
2022-09-28T19:28:59.223Z,2.97
2022-09-28T19:31:27.260Z,3.00
2022-09-28T19:33:54.681Z,3.07
2022-09-28T19:36:25.691Z,3.07
2022-09-28T19:38:53.494Z,3.00
2022-09-28T19:41:44.150Z,2.90
2022-09-28T19:44:24.621Z,3.00
2022-09-28T19:47:06.957Z,3.13
2022-09-28T19:49:37.637Z,3.10
2022-09-28T19:52:15.477Z,3.00
2022-09-28T19:54:57.550Z,3.13
2022-09-28T19:57:32.363Z,3.10
2022-09-28T20:00:03.434Z,3.17
2022-09-28T20:02:34.998Z,3.13
2022-09-28T20:05:02.287Z,3.20
2022-09-28T20:07:32.653Z,3.10
2022-09-28T20:10:00.184Z,3.30
2022-09-28T20:12:27.599Z,3.17
2022-09-28T20:14:55.079Z,3.10
2022-09-28T20:17:22.522Z,3.20
2022-09-28T20:19:51.610Z,3.20
2022-09-28T20:22:19.871Z,3.17
2022-09-28T20:24:47.371Z,3.20
2022-09-28T20:27:14.787Z,3.10
2022-09-28T20:29:42.910Z,3.30
2022-09-28T20:32:11.386Z,3.23
2022-09-28T20:34:38.826Z,3.13
2022-09-28T20:37:06.275Z,3.30
2022-09-28T20:39:34.348Z,3.20
2022-09-28T20:42:01.919Z,3.27
2022-09-28T20:44:29.281Z,3.20
2022-09-28T20:46:56.755Z,3.20
2022-09-28T20:49:24.331Z,3.23
2022-09-28T20:51:51.780Z,3.27
2022-09-28T20:54:18.821Z,3.23
2022-09-28T20:56:47.999Z,3.20
2022-09-28T20:59:15.723Z,3.27
2022-09-28T21:01:42.924Z,3.27
2022-09-28T21:04:10.783Z,3.07
2022-09-28T21:06:41.860Z,3.13
2022-09-28T21:09:11.173Z,3.40
2022-09-28T21:11:39.343Z,3.20
2022-09-28T21:14:09.438Z,3.10
2022-09-28T21:16:37.340Z,3.13
2022-09-28T21:19:05.104Z,3.10
2022-09-28T21:21:32.589Z,3.17
2022-09-28T21:24:00.068Z,3.17
2022-09-28T21:26:29.200Z,3.13
2022-09-28T21:29:04.754Z,3.00
2022-09-28T21:31:46.573Z,3.13
2022-09-28T21:34:19.918Z,3.23
2022-09-28T21:36:51.108Z,3.23
2022-09-28T21:39:20.048Z,3.20
2022-09-28T21:41:47.489Z,3.20
2022-09-28T21:44:14.985Z,3.30
2022-09-28T21:46:42.234Z,3.23
2022-09-28T21:49:12.506Z,3.20
2022-09-28T21:51:40.069Z,3.30
2022-09-28T21:54:08.054Z,3.30
2022-09-28T21:56:35.563Z,3.10
2022-09-28T21:59:02.814Z,3.30
2022-09-28T22:01:31.573Z,3.20
2022-09-28T22:03:59.181Z,3.20
2022-09-28T22:06:30.309Z,3.23
2022-09-28T22:08:58.121Z,3.23
2022-09-28T22:11:28.663Z,3.20
2022-09-28T22:13:59.204Z,3.10
2022-09-28T22:16:30.173Z,3.27
2022-09-28T22:18:59.038Z,3.20
2022-09-28T22:21:32.569Z,3.20
2022-09-28T22:24:05.658Z,3.30
2022-09-28T22:26:36.421Z,3.27
2022-09-28T22:29:08.685Z,3.20
2022-09-28T22:31:41.296Z,3.27
2022-09-28T22:34:09.890Z,3.30
2022-09-28T22:36:37.295Z,3.27
2022-09-28T22:39:04.859Z,3.20
2022-09-28T22:41:32.791Z,3.20
2022-09-28T22:44:00.646Z,3.13
2022-09-28T22:46:31.607Z,3.27
2022-09-28T22:49:00.365Z,3.20
2022-09-28T22:51:30.085Z,3.30
2022-09-28T22:53:58.039Z,3.30
2022-09-28T22:56:25.726Z,3.30
2022-09-28T22:58:53.304Z,3.27
2022-09-28T23:01:29.884Z,3.37
2022-09-28T23:03:58.267Z,3.30
2022-09-28T23:06:28.863Z,3.23
2022-09-28T23:08:56.642Z,3.27
2022-09-28T23:11:24.052Z,3.27
2022-09-28T23:13:53.653Z,3.23
2022-09-28T23:16:23.303Z,3.27
2022-09-28T23:18:51.469Z,3.20
2022-09-28T23:21:22.469Z,3.30
2022-09-28T23:24:01.454Z,3.40
2022-09-28T23:26:33.073Z,3.20
2022-09-28T23:29:00.919Z,3.30
2022-09-28T23:31:31.161Z,3.30
2022-09-28T23:34:05.159Z,3.30
2022-09-28T23:36:33.520Z,3.27
2022-09-28T23:39:00.919Z,3.27
2022-09-28T23:41:28.428Z,3.27
2022-09-28T23:43:55.888Z,3.37
2022-09-28T23:46:23.300Z,3.20
2022-09-28T23:48:51.151Z,3.20
2022-09-28T23:51:18.895Z,3.30
2022-09-28T23:53:46.729Z,3.30
2022-09-28T23:56:14.533Z,3.30
2022-09-28T23:58:42.705Z,3.30
